sensor_id;sensor_type;location;lat;lon;timestamp;P1;durP1;ratioP1;P2;durP2;ratioP2
37905;SDS011;23739;51.448;6.674;2022-10-24T00:01:27;12.77;;;3.78;;
37905;SDS011;23739;51.448;6.674;2022-10-24T00:04:00;16.60;;;4.35;;
37905;SDS011;23739;51.448;6.674;2022-10-24T00:06:39;14.38;;;4.30;;
37905;SDS011;23739;51.448;6.674;2022-10-24T00:09:08;9.30;;;3.75;;
37905;SDS011;23739;51.448;6.674;2022-10-24T00:11:42;9.38;;;3.28;;
37905;SDS011;23739;51.448;6.674;2022-10-24T00:14:11;9.63;;;3.58;;
37905;SDS011;23739;51.448;6.674;2022-10-24T00:16:37;9.32;;;3.72;;
37905;SDS011;23739;51.448;6.674;2022-10-24T00:19:03;11.43;;;3.15;;
37905;SDS011;23739;51.448;6.674;2022-10-24T00:21:30;7.53;;;2.53;;
37905;SDS011;23739;51.448;6.674;2022-10-24T00:23:56;7.25;;;2.25;;
37905;SDS011;23739;51.448;6.674;2022-10-24T00:26:22;7.22;;;2.92;;
37905;SDS011;23739;51.448;6.674;2022-10-24T00:28:48;10.13;;;3.10;;
37905;SDS011;23739;51.448;6.674;2022-10-24T00:31:15;7.45;;;2.35;;
37905;SDS011;23739;51.448;6.674;2022-10-24T00:33:43;9.90;;;2.30;;
37905;SDS011;23739;51.448;6.674;2022-10-24T00:36:10;8.30;;;2.63;;
37905;SDS011;23739;51.448;6.674;2022-10-24T00:38:36;9.05;;;2.65;;
37905;SDS011;23739;51.448;6.674;2022-10-24T00:41:02;8.32;;;3.10;;
37905;SDS011;23739;51.448;6.674;2022-10-24T00:43:29;5.95;;;2.30;;
37905;SDS011;23739;51.448;6.674;2022-10-24T00:45:55;15.27;;;3.25;;
37905;SDS011;23739;51.448;6.674;2022-10-24T00:50:56;7.25;;;3.15;;
37905;SDS011;23739;51.448;6.674;2022-10-24T00:53:24;8.77;;;3.83;;
37905;SDS011;23739;51.448;6.674;2022-10-24T00:56:12;18.52;;;8.75;;
37905;SDS011;23739;51.448;6.674;2022-10-24T00:58:38;21.50;;;8.88;;
37905;SDS011;23739;51.448;6.674;2022-10-24T01:01:06;14.32;;;8.40;;
37905;SDS011;23739;51.448;6.674;2022-10-24T01:03:33;15.25;;;6.57;;
37905;SDS011;23739;51.448;6.674;2022-10-24T01:11:23;12.98;;;3.78;;
37905;SDS011;23739;51.448;6.674;2022-10-24T01:16:32;5.97;;;2.10;;
37905;SDS011;23739;51.448;6.674;2022-10-24T01:21:40;7.68;;;3.13;;
37905;SDS011;23739;51.448;6.674;2022-10-24T01:27:04;8.80;;;2.17;;
37905;SDS011;23739;51.448;6.674;2022-10-24T01:35:24;8.80;;;2.87;;
37905;SDS011;23739;51.448;6.674;2022-10-24T01:37:59;7.07;;;2.65;;
37905;SDS011;23739;51.448;6.674;2022-10-24T01:43:24;9.00;;;3.25;;
37905;SDS011;23739;51.448;6.674;2022-10-24T01:45:53;7.18;;;2.20;;
37905;SDS011;23739;51.448;6.674;2022-10-24T01:48:20;6.22;;;2.50;;
37905;SDS011;23739;51.448;6.674;2022-10-24T01:50:48;3.83;;;2.10;;
37905;SDS011;23739;51.448;6.674;2022-10-24T01:53:15;9.02;;;2.08;;
37905;SDS011;23739;51.448;6.674;2022-10-24T01:55:41;7.50;;;2.70;;
37905;SDS011;23739;51.448;6.674;2022-10-24T01:58:07;5.05;;;2.28;;
37905;SDS011;23739;51.448;6.674;2022-10-24T02:00:34;8.18;;;2.55;;
37905;SDS011;23739;51.448;6.674;2022-10-24T02:03:00;11.63;;;2.38;;
37905;SDS011;23739;51.448;6.674;2022-10-24T02:05:38;8.88;;;3.17;;
37905;SDS011;23739;51.448;6.674;2022-10-24T02:08:10;9.75;;;2.85;;
37905;SDS011;23739;51.448;6.674;2022-10-24T02:10:38;8.50;;;2.75;;
37905;SDS011;23739;51.448;6.674;2022-10-24T02:13:13;10.05;;;3.33;;
37905;SDS011;23739;51.448;6.674;2022-10-24T02:15:43;13.25;;;3.58;;
37905;SDS011;23739;51.448;6.674;2022-10-24T02:18:09;7.45;;;2.47;;
37905;SDS011;23739;51.448;6.674;2022-10-24T02:20:38;9.38;;;3.10;;
37905;SDS011;23739;51.448;6.674;2022-10-24T02:23:21;10.45;;;3.15;;
37905;SDS011;23739;51.448;6.674;2022-10-24T02:25:50;7.38;;;2.83;;
37905;SDS011;23739;51.448;6.674;2022-10-24T02:28:21;8.65;;;2.78;;
37905;SDS011;23739;51.448;6.674;2022-10-24T02:30:53;4.63;;;2.35;;
37905;SDS011;23739;51.448;6.674;2022-10-24T02:33:21;8.52;;;2.60;;
37905;SDS011;23739;51.448;6.674;2022-10-24T02:35:48;10.57;;;3.10;;
37905;SDS011;23739;51.448;6.674;2022-10-24T02:40:42;9.23;;;3.13;;
37905;SDS011;23739;51.448;6.674;2022-10-24T02:43:09;9.77;;;2.90;;
37905;SDS011;23739;51.448;6.674;2022-10-24T02:45:37;10.15;;;2.17;;
37905;SDS011;23739;51.448;6.674;2022-10-24T02:48:05;6.03;;;1.88;;
37905;SDS011;23739;51.448;6.674;2022-10-24T02:50:33;9.23;;;2.88;;
37905;SDS011;23739;51.448;6.674;2022-10-24T02:52:59;9.00;;;2.15;;
37905;SDS011;23739;51.448;6.674;2022-10-24T02:55:25;8.48;;;2.40;;
37905;SDS011;23739;51.448;6.674;2022-10-24T02:57:51;8.93;;;3.33;;
37905;SDS011;23739;51.448;6.674;2022-10-24T03:00:18;8.15;;;2.15;;
37905;SDS011;23739;51.448;6.674;2022-10-24T03:02:44;11.38;;;2.20;;
37905;SDS011;23739;51.448;6.674;2022-10-24T03:05:11;4.90;;;2.20;;
37905;SDS011;23739;51.448;6.674;2022-10-24T03:07:37;10.90;;;2.28;;
37905;SDS011;23739;51.448;6.674;2022-10-24T03:10:03;6.35;;;2.85;;
37905;SDS011;23739;51.448;6.674;2022-10-24T03:12:30;6.13;;;1.77;;
37905;SDS011;23739;51.448;6.674;2022-10-24T03:14:56;5.45;;;2.05;;
37905;SDS011;23739;51.448;6.674;2022-10-24T03:17:22;8.05;;;2.50;;
37905;SDS011;23739;51.448;6.674;2022-10-24T03:19:48;4.72;;;1.90;;
37905;SDS011;23739;51.448;6.674;2022-10-24T03:22:14;7.07;;;1.65;;
37905;SDS011;23739;51.448;6.674;2022-10-24T03:24:40;6.13;;;1.95;;
37905;SDS011;23739;51.448;6.674;2022-10-24T03:27:06;11.05;;;1.85;;
37905;SDS011;23739;51.448;6.674;2022-10-24T03:29:32;7.88;;;2.30;;
37905;SDS011;23739;51.448;6.674;2022-10-24T03:31:59;5.47;;;2.55;;
37905;SDS011;23739;51.448;6.674;2022-10-24T03:34:25;4.47;;;2.28;;
37905;SDS011;23739;51.448;6.674;2022-10-24T03:36:51;4.15;;;1.63;;
37905;SDS011;23739;51.448;6.674;2022-10-24T03:39:17;8.98;;;1.75;;
37905;SDS011;23739;51.448;6.674;2022-10-24T03:41:43;10.43;;;2.53;;
37905;SDS011;23739;51.448;6.674;2022-10-24T03:44:10;8.07;;;3.40;;
37905;SDS011;23739;51.448;6.674;2022-10-24T03:46:36;5.10;;;2.20;;
37905;SDS011;23739;51.448;6.674;2022-10-24T03:49:02;7.85;;;2.42;;
37905;SDS011;23739;51.448;6.674;2022-10-24T03:51:29;7.40;;;1.92;;
37905;SDS011;23739;51.448;6.674;2022-10-24T03:53:55;8.25;;;2.10;;
37905;SDS011;23739;51.448;6.674;2022-10-24T03:56:21;6.18;;;1.90;;
37905;SDS011;23739;51.448;6.674;2022-10-24T03:58:47;5.93;;;1.77;;
37905;SDS011;23739;51.448;6.674;2022-10-24T04:01:13;6.07;;;2.08;;
37905;SDS011;23739;51.448;6.674;2022-10-24T04:03:45;9.43;;;3.42;;
37905;SDS011;23739;51.448;6.674;2022-10-24T04:06:12;7.50;;;2.22;;
37905;SDS011;23739;51.448;6.674;2022-10-24T04:08:38;6.45;;;1.88;;
37905;SDS011;23739;51.448;6.674;2022-10-24T04:11:05;6.85;;;3.05;;
37905;SDS011;23739;51.448;6.674;2022-10-24T04:13:31;5.78;;;2.35;;
37905;SDS011;23739;51.448;6.674;2022-10-24T04:15:57;9.30;;;2.45;;
37905;SDS011;23739;51.448;6.674;2022-10-24T04:18:24;8.18;;;2.13;;
37905;SDS011;23739;51.448;6.674;2022-10-24T04:20:50;11.20;;;2.83;;
37905;SDS011;23739;51.448;6.674;2022-10-24T04:23:16;4.78;;;1.42;;
37905;SDS011;23739;51.448;6.674;2022-10-24T04:25:43;5.82;;;1.63;;
37905;SDS011;23739;51.448;6.674;2022-10-24T04:28:09;6.28;;;1.92;;
37905;SDS011;23739;51.448;6.674;2022-10-24T04:30:35;5.68;;;2.08;;
37905;SDS011;23739;51.448;6.674;2022-10-24T04:33:01;5.78;;;2.28;;
37905;SDS011;23739;51.448;6.674;2022-10-24T04:35:27;8.45;;;1.70;;
37905;SDS011;23739;51.448;6.674;2022-10-24T04:37:53;7.03;;;2.20;;
37905;SDS011;23739;51.448;6.674;2022-10-24T04:40:19;4.57;;;1.75;;
37905;SDS011;23739;51.448;6.674;2022-10-24T04:42:45;9.27;;;1.80;;
37905;SDS011;23739;51.448;6.674;2022-10-24T04:45:11;3.92;;;1.58;;
37905;SDS011;23739;51.448;6.674;2022-10-24T04:47:37;4.60;;;1.70;;
37905;SDS011;23739;51.448;6.674;2022-10-24T04:50:04;6.47;;;1.48;;
37905;SDS011;23739;51.448;6.674;2022-10-24T04:52:30;5.22;;;1.20;;
37905;SDS011;23739;51.448;6.674;2022-10-24T04:54:56;5.18;;;2.35;;
37905;SDS011;23739;51.448;6.674;2022-10-24T04:57:22;4.45;;;1.55;;
37905;SDS011;23739;51.448;6.674;2022-10-24T04:59:48;4.32;;;1.85;;
37905;SDS011;23739;51.448;6.674;2022-10-24T05:02:15;4.90;;;1.48;;
37905;SDS011;23739;51.448;6.674;2022-10-24T05:04:41;10.27;;;1.92;;
37905;SDS011;23739;51.448;6.674;2022-10-24T05:07:07;4.30;;;1.40;;
37905;SDS011;23739;51.448;6.674;2022-10-24T05:09:33;5.50;;;2.42;;
37905;SDS011;23739;51.448;6.674;2022-10-24T05:11:59;6.15;;;1.60;;
37905;SDS011;23739;51.448;6.674;2022-10-24T05:14:26;6.32;;;1.77;;
37905;SDS011;23739;51.448;6.674;2022-10-24T05:16:52;5.97;;;1.85;;
37905;SDS011;23739;51.448;6.674;2022-10-24T05:19:18;7.57;;;2.28;;
37905;SDS011;23739;51.448;6.674;2022-10-24T05:21:45;6.72;;;1.55;;
37905;SDS011;23739;51.448;6.674;2022-10-24T05:24:11;4.40;;;1.65;;
37905;SDS011;23739;51.448;6.674;2022-10-24T05:26:37;8.93;;;2.25;;
37905;SDS011;23739;51.448;6.674;2022-10-24T05:29:04;11.27;;;2.22;;
37905;SDS011;23739;51.448;6.674;2022-10-24T05:31:30;6.07;;;2.17;;
37905;SDS011;23739;51.448;6.674;2022-10-24T05:33:56;7.95;;;1.80;;
37905;SDS011;23739;51.448;6.674;2022-10-24T05:36:22;6.10;;;1.48;;
37905;SDS011;23739;51.448;6.674;2022-10-24T05:38:48;6.45;;;2.10;;
37905;SDS011;23739;51.448;6.674;2022-10-24T05:41:14;3.70;;;1.20;;
37905;SDS011;23739;51.448;6.674;2022-10-24T05:43:40;6.32;;;1.70;;
37905;SDS011;23739;51.448;6.674;2022-10-24T05:46:06;9.05;;;2.85;;
37905;SDS011;23739;51.448;6.674;2022-10-24T05:48:34;6.20;;;1.70;;
37905;SDS011;23739;51.448;6.674;2022-10-24T05:51:00;7.70;;;2.00;;
37905;SDS011;23739;51.448;6.674;2022-10-24T05:53:26;6.75;;;2.00;;
37905;SDS011;23739;51.448;6.674;2022-10-24T05:55:52;5.78;;;1.63;;
37905;SDS011;23739;51.448;6.674;2022-10-24T05:58:19;6.25;;;1.63;;
37905;SDS011;23739;51.448;6.674;2022-10-24T06:00:49;4.63;;;1.35;;
37905;SDS011;23739;51.448;6.674;2022-10-24T06:03:16;6.93;;;1.95;;
37905;SDS011;23739;51.448;6.674;2022-10-24T06:05:42;9.27;;;1.58;;
37905;SDS011;23739;51.448;6.674;2022-10-24T06:08:08;5.20;;;1.63;;
37905;SDS011;23739;51.448;6.674;2022-10-24T06:10:35;5.25;;;1.63;;
37905;SDS011;23739;51.448;6.674;2022-10-24T06:13:01;4.93;;;1.60;;
37905;SDS011;23739;51.448;6.674;2022-10-24T06:15:27;3.92;;;1.75;;
37905;SDS011;23739;51.448;6.674;2022-10-24T06:17:53;3.60;;;1.90;;
37905;SDS011;23739;51.448;6.674;2022-10-24T06:20:19;12.15;;;1.70;;
37905;SDS011;23739;51.448;6.674;2022-10-24T06:22:47;3.88;;;1.48;;
37905;SDS011;23739;51.448;6.674;2022-10-24T06:25:13;4.30;;;1.10;;
37905;SDS011;23739;51.448;6.674;2022-10-24T06:27:41;4.65;;;1.45;;
37905;SDS011;23739;51.448;6.674;2022-10-24T06:30:07;4.07;;;1.10;;
37905;SDS011;23739;51.448;6.674;2022-10-24T06:32:34;3.20;;;0.90;;
37905;SDS011;23739;51.448;6.674;2022-10-24T06:35:01;3.25;;;1.33;;
37905;SDS011;23739;51.448;6.674;2022-10-24T06:37:27;3.05;;;1.00;;
37905;SDS011;23739;51.448;6.674;2022-10-24T06:39:54;3.17;;;1.55;;
37905;SDS011;23739;51.448;6.674;2022-10-24T06:42:20;4.32;;;1.50;;
37905;SDS011;23739;51.448;6.674;2022-10-24T06:44:46;3.38;;;1.00;;
37905;SDS011;23739;51.448;6.674;2022-10-24T06:47:12;2.10;;;0.88;;
37905;SDS011;23739;51.448;6.674;2022-10-24T06:49:39;6.95;;;1.40;;
37905;SDS011;23739;51.448;6.674;2022-10-24T06:52:05;4.10;;;1.73;;
37905;SDS011;23739;51.448;6.674;2022-10-24T06:54:31;4.80;;;1.40;;
37905;SDS011;23739;51.448;6.674;2022-10-24T06:56:59;2.78;;;1.33;;
37905;SDS011;23739;51.448;6.674;2022-10-24T06:59:25;8.43;;;1.40;;
37905;SDS011;23739;51.448;6.674;2022-10-24T07:01:51;3.97;;;1.30;;
37905;SDS011;23739;51.448;6.674;2022-10-24T07:04:18;2.28;;;1.13;;
37905;SDS011;23739;51.448;6.674;2022-10-24T07:06:44;5.47;;;2.20;;
37905;SDS011;23739;51.448;6.674;2022-10-24T07:09:10;3.30;;;1.20;;
37905;SDS011;23739;51.448;6.674;2022-10-24T07:11:36;4.10;;;1.02;;
37905;SDS011;23739;51.448;6.674;2022-10-24T07:14:03;5.53;;;1.17;;
37905;SDS011;23739;51.448;6.674;2022-10-24T07:16:30;4.28;;;1.77;;
37905;SDS011;23739;51.448;6.674;2022-10-24T07:18:56;6.13;;;1.33;;
37905;SDS011;23739;51.448;6.674;2022-10-24T07:21:23;6.63;;;1.58;;
37905;SDS011;23739;51.448;6.674;2022-10-24T07:23:51;5.15;;;1.13;;
37905;SDS011;23739;51.448;6.674;2022-10-24T07:26:17;7.55;;;1.50;;
37905;SDS011;23739;51.448;6.674;2022-10-24T07:28:43;7.35;;;1.33;;
37905;SDS011;23739;51.448;6.674;2022-10-24T07:31:11;6.95;;;1.27;;
37905;SDS011;23739;51.448;6.674;2022-10-24T07:33:39;6.90;;;1.10;;
37905;SDS011;23739;51.448;6.674;2022-10-24T07:36:06;6.20;;;1.33;;
37905;SDS011;23739;51.448;6.674;2022-10-24T07:38:32;2.63;;;1.00;;
37905;SDS011;23739;51.448;6.674;2022-10-24T07:41:01;8.30;;;1.30;;
37905;SDS011;23739;51.448;6.674;2022-10-24T07:43:27;6.93;;;1.00;;
37905;SDS011;23739;51.448;6.674;2022-10-24T07:45:53;8.88;;;1.45;;
37905;SDS011;23739;51.448;6.674;2022-10-24T07:48:19;1.90;;;0.88;;
37905;SDS011;23739;51.448;6.674;2022-10-24T07:50:46;5.22;;;1.25;;
37905;SDS011;23739;51.448;6.674;2022-10-24T07:53:12;4.35;;;1.25;;
37905;SDS011;23739;51.448;6.674;2022-10-24T07:55:39;7.28;;;1.17;;
37905;SDS011;23739;51.448;6.674;2022-10-24T07:58:06;5.13;;;1.38;;
37905;SDS011;23739;51.448;6.674;2022-10-24T08:00:33;8.98;;;1.15;;
37905;SDS011;23739;51.448;6.674;2022-10-24T08:02:59;7.05;;;1.20;;
37905;SDS011;23739;51.448;6.674;2022-10-24T08:05:25;7.57;;;1.60;;
37905;SDS011;23739;51.448;6.674;2022-10-24T08:07:51;4.88;;;1.00;;
37905;SDS011;23739;51.448;6.674;2022-10-24T08:10:18;5.10;;;1.85;;
37905;SDS011;23739;51.448;6.674;2022-10-24T08:12:44;8.15;;;1.48;;
37905;SDS011;23739;51.448;6.674;2022-10-24T08:15:13;6.40;;;0.82;;
37905;SDS011;23739;51.448;6.674;2022-10-24T08:17:39;5.97;;;1.40;;
37905;SDS011;23739;51.448;6.674;2022-10-24T08:20:07;3.55;;;0.82;;
37905;SDS011;23739;51.448;6.674;2022-10-24T08:22:33;7.05;;;1.23;;
37905;SDS011;23739;51.448;6.674;2022-10-24T08:25:00;7.18;;;1.75;;
37905;SDS011;23739;51.448;6.674;2022-10-24T08:27:29;4.95;;;1.38;;
37905;SDS011;23739;51.448;6.674;2022-10-24T08:29:56;5.25;;;1.83;;
37905;SDS011;23739;51.448;6.674;2022-10-24T08:32:23;5.95;;;1.25;;
37905;SDS011;23739;51.448;6.674;2022-10-24T08:34:49;8.52;;;1.60;;
37905;SDS011;23739;51.448;6.674;2022-10-24T08:37:15;6.30;;;1.17;;
37905;SDS011;23739;51.448;6.674;2022-10-24T08:39:41;8.52;;;1.83;;
37905;SDS011;23739;51.448;6.674;2022-10-24T08:42:10;8.00;;;2.00;;
37905;SDS011;23739;51.448;6.674;2022-10-24T08:44:39;6.43;;;1.73;;
37905;SDS011;23739;51.448;6.674;2022-10-24T08:49:51;6.63;;;1.08;;
37905;SDS011;23739;51.448;6.674;2022-10-24T08:54:48;4.20;;;1.23;;
37905;SDS011;23739;51.448;6.674;2022-10-24T08:57:25;6.32;;;1.00;;
37905;SDS011;23739;51.448;6.674;2022-10-24T08:59:53;8.95;;;1.75;;
37905;SDS011;23739;51.448;6.674;2022-10-24T09:02:25;5.40;;;1.15;;
37905;SDS011;23739;51.448;6.674;2022-10-24T09:04:56;10.65;;;1.80;;
37905;SDS011;23739;51.448;6.674;2022-10-24T09:07:23;10.55;;;1.10;;
37905;SDS011;23739;51.448;6.674;2022-10-24T09:09:50;9.50;;;1.63;;
37905;SDS011;23739;51.448;6.674;2022-10-24T09:12:18;7.38;;;1.67;;
37905;SDS011;23739;51.448;6.674;2022-10-24T09:14:46;7.18;;;1.13;;
37905;SDS011;23739;51.448;6.674;2022-10-24T09:17:21;4.82;;;1.30;;
37905;SDS011;23739;51.448;6.674;2022-10-24T09:20:12;8.38;;;1.60;;
37905;SDS011;23739;51.448;6.674;2022-10-24T09:22:33;7.57;;;1.52;;
37905;SDS011;23739;51.448;6.674;2022-10-24T09:25:01;7.38;;;1.40;;
37905;SDS011;23739;51.448;6.674;2022-10-24T09:27:29;8.85;;;1.15;;
37905;SDS011;23739;51.448;6.674;2022-10-24T09:29:57;10.40;;;2.40;;
37905;SDS011;23739;51.448;6.674;2022-10-24T09:32:24;8.98;;;1.48;;
37905;SDS011;23739;51.448;6.674;2022-10-24T09:34:52;8.45;;;1.13;;
37905;SDS011;23739;51.448;6.674;2022-10-24T09:38:23;6.82;;;1.40;;
37905;SDS011;23739;51.448;6.674;2022-10-24T09:42:48;4.80;;;1.10;;
37905;SDS011;23739;51.448;6.674;2022-10-24T09:45:19;5.93;;;1.58;;
37905;SDS011;23739;51.448;6.674;2022-10-24T09:47:45;9.07;;;1.80;;
37905;SDS011;23739;51.448;6.674;2022-10-24T09:50:20;5.25;;;1.98;;
37905;SDS011;23739;51.448;6.674;2022-10-24T09:52:47;5.47;;;1.90;;
37905;SDS011;23739;51.448;6.674;2022-10-24T09:55:16;6.38;;;2.05;;
37905;SDS011;23739;51.448;6.674;2022-10-24T09:57:42;9.80;;;1.38;;
37905;SDS011;23739;51.448;6.674;2022-10-24T10:00:25;5.75;;;1.50;;
37905;SDS011;23739;51.448;6.674;2022-10-24T10:02:58;7.63;;;1.50;;
37905;SDS011;23739;51.448;6.674;2022-10-24T10:05:26;7.25;;;1.38;;
37905;SDS011;23739;51.448;6.674;2022-10-24T10:07:52;4.38;;;1.10;;
37905;SDS011;23739;51.448;6.674;2022-10-24T10:13:33;8.15;;;1.20;;
37905;SDS011;23739;51.448;6.674;2022-10-24T10:18:25;5.38;;;0.90;;
37905;SDS011;23739;51.448;6.674;2022-10-24T10:23:25;7.65;;;1.42;;
37905;SDS011;23739;51.448;6.674;2022-10-24T10:26:06;10.85;;;1.73;;
37905;SDS011;23739;51.448;6.674;2022-10-24T10:28:34;7.53;;;1.15;;
37905;SDS011;23739;51.448;6.674;2022-10-24T10:31:02;6.55;;;1.50;;
37905;SDS011;23739;51.448;6.674;2022-10-24T10:33:35;7.97;;;1.67;;
37905;SDS011;23739;51.448;6.674;2022-10-24T10:36:04;5.00;;;1.83;;
37905;SDS011;23739;51.448;6.674;2022-10-24T10:38:47;9.80;;;1.30;;
37905;SDS011;23739;51.448;6.674;2022-10-24T10:47:20;5.88;;;1.40;;
37905;SDS011;23739;51.448;6.674;2022-10-24T10:49:49;5.07;;;1.45;;
37905;SDS011;23739;51.448;6.674;2022-10-24T10:52:24;6.80;;;1.27;;
37905;SDS011;23739;51.448;6.674;2022-10-24T10:57:20;6.28;;;1.20;;
37905;SDS011;23739;51.448;6.674;2022-10-24T10:59:53;7.90;;;1.52;;
37905;SDS011;23739;51.448;6.674;2022-10-24T11:02:31;10.85;;;1.85;;
37905;SDS011;23739;51.448;6.674;2022-10-24T11:10:09;12.60;;;2.15;;
37905;SDS011;23739;51.448;6.674;2022-10-24T11:12:38;7.38;;;1.45;;
37905;SDS011;23739;51.448;6.674;2022-10-24T11:22:35;7.30;;;1.40;;
37905;SDS011;23739;51.448;6.674;2022-10-24T11:25:25;6.55;;;1.42;;
37905;SDS011;23739;51.448;6.674;2022-10-24T11:28:13;6.15;;;1.27;;
37905;SDS011;23739;51.448;6.674;2022-10-24T11:30:39;7.95;;;2.50;;
37905;SDS011;23739;51.448;6.674;2022-10-24T11:33:07;8.52;;;1.55;;
37905;SDS011;23739;51.448;6.674;2022-10-24T11:35:37;7.38;;;1.50;;
37905;SDS011;23739;51.448;6.674;2022-10-24T11:38:19;7.88;;;1.70;;
37905;SDS011;23739;51.448;6.674;2022-10-24T11:40:47;7.45;;;1.65;;
37905;SDS011;23739;51.448;6.674;2022-10-24T11:45:49;7.60;;;1.58;;
37905;SDS011;23739;51.448;6.674;2022-10-24T11:48:20;7.00;;;1.45;;
37905;SDS011;23739;51.448;6.674;2022-10-24T11:55:56;7.88;;;1.73;;
37905;SDS011;23739;51.448;6.674;2022-10-24T11:58:24;5.53;;;1.95;;
37905;SDS011;23739;51.448;6.674;2022-10-24T12:00:56;10.85;;;2.95;;
37905;SDS011;23739;51.448;6.674;2022-10-24T12:03:35;12.20;;;2.20;;
37905;SDS011;23739;51.448;6.674;2022-10-24T12:11:42;10.88;;;1.65;;
37905;SDS011;23739;51.448;6.674;2022-10-24T12:19:14;6.07;;;1.38;;
37905;SDS011;23739;51.448;6.674;2022-10-24T12:21:44;7.07;;;1.58;;
37905;SDS011;23739;51.448;6.674;2022-10-24T12:24:19;7.13;;;1.70;;
37905;SDS011;23739;51.448;6.674;2022-10-24T12:26:52;9.93;;;1.95;;
37905;SDS011;23739;51.448;6.674;2022-10-24T12:29:20;9.40;;;1.33;;
37905;SDS011;23739;51.448;6.674;2022-10-24T12:31:48;11.20;;;1.98;;
37905;SDS011;23739;51.448;6.674;2022-10-24T12:39:28;9.48;;;2.00;;
37905;SDS011;23739;51.448;6.674;2022-10-24T12:41:55;9.15;;;2.22;;
37905;SDS011;23739;51.448;6.674;2022-10-24T12:46:58;10.40;;;1.60;;
37905;SDS011;23739;51.448;6.674;2022-10-24T12:49:26;9.48;;;2.03;;
37905;SDS011;23739;51.448;6.674;2022-10-24T12:51:53;4.55;;;1.40;;
37905;SDS011;23739;51.448;6.674;2022-10-24T12:54:38;9.13;;;1.83;;
37905;SDS011;23739;51.448;6.674;2022-10-24T13:20:22;5.75;;;1.33;;
37905;SDS011;23739;51.448;6.674;2022-10-24T13:22:49;8.32;;;1.15;;
37905;SDS011;23739;51.448;6.674;2022-10-24T13:25:17;5.85;;;1.33;;
37905;SDS011;23739;51.448;6.674;2022-10-24T13:27:43;6.90;;;1.35;;
37905;SDS011;23739;51.448;6.674;2022-10-24T13:30:23;8.85;;;1.38;;
37905;SDS011;23739;51.448;6.674;2022-10-24T13:32:50;5.07;;;1.90;;
37905;SDS011;23739;51.448;6.674;2022-10-24T13:35:18;7.53;;;1.48;;
37905;SDS011;23739;51.448;6.674;2022-10-24T13:37:46;10.20;;;1.35;;
37905;SDS011;23739;51.448;6.674;2022-10-24T13:40:24;10.98;;;1.58;;
37905;SDS011;23739;51.448;6.674;2022-10-24T13:42:59;7.40;;;1.35;;
37905;SDS011;23739;51.448;6.674;2022-10-24T13:45:28;6.57;;;1.10;;
37905;SDS011;23739;51.448;6.674;2022-10-24T13:48:00;7.40;;;1.10;;
37905;SDS011;23739;51.448;6.674;2022-10-24T13:50:30;7.13;;;1.50;;
37905;SDS011;23739;51.448;6.674;2022-10-24T13:53:18;7.57;;;1.15;;
37905;SDS011;23739;51.448;6.674;2022-10-24T13:55:43;8.10;;;1.58;;
37905;SDS011;23739;51.448;6.674;2022-10-24T13:58:15;5.40;;;2.17;;
37905;SDS011;23739;51.448;6.674;2022-10-24T14:00:44;5.70;;;1.48;;
37905;SDS011;23739;51.448;6.674;2022-10-24T14:03:12;5.78;;;1.20;;
37905;SDS011;23739;51.448;6.674;2022-10-24T14:05:54;8.52;;;1.70;;
37905;SDS011;23739;51.448;6.674;2022-10-24T14:10:48;5.00;;;1.50;;
37905;SDS011;23739;51.448;6.674;2022-10-24T14:13:14;5.20;;;1.15;;
37905;SDS011;23739;51.448;6.674;2022-10-24T14:15:48;4.47;;;1.42;;
37905;SDS011;23739;51.448;6.674;2022-10-24T14:18:14;9.07;;;1.95;;
37905;SDS011;23739;51.448;6.674;2022-10-24T14:20:41;9.23;;;1.80;;
37905;SDS011;23739;51.448;6.674;2022-10-24T14:23:41;12.13;;;1.90;;
37905;SDS011;23739;51.448;6.674;2022-10-24T14:26:01;4.93;;;1.00;;
37905;SDS011;23739;51.448;6.674;2022-10-24T14:28:29;3.85;;;1.15;;
37905;SDS011;23739;51.448;6.674;2022-10-24T14:30:56;5.50;;;1.05;;
37905;SDS011;23739;51.448;6.674;2022-10-24T14:33:24;1.92;;;0.60;;
37905;SDS011;23739;51.448;6.674;2022-10-24T14:35:52;3.33;;;1.05;;
37905;SDS011;23739;51.448;6.674;2022-10-24T14:38:18;4.30;;;1.30;;
37905;SDS011;23739;51.448;6.674;2022-10-24T14:40:45;7.40;;;1.20;;
37905;SDS011;23739;51.448;6.674;2022-10-24T14:43:24;7.05;;;1.08;;
37905;SDS011;23739;51.448;6.674;2022-10-24T14:48:38;11.63;;;2.20;;
37905;SDS011;23739;51.448;6.674;2022-10-24T14:51:05;4.72;;;1.83;;
37905;SDS011;23739;51.448;6.674;2022-10-24T14:53:36;4.88;;;1.02;;
37905;SDS011;23739;51.448;6.674;2022-10-24T14:56:04;9.68;;;2.75;;
37905;SDS011;23739;51.448;6.674;2022-10-24T14:58:31;10.45;;;1.98;;
37905;SDS011;23739;51.448;6.674;2022-10-24T15:01:01;9.23;;;2.10;;
37905;SDS011;23739;51.448;6.674;2022-10-24T15:03:28;11.02;;;2.15;;
37905;SDS011;23739;51.448;6.674;2022-10-24T15:08:27;8.48;;;2.22;;
37905;SDS011;23739;51.448;6.674;2022-10-24T15:11:12;9.63;;;2.25;;
37905;SDS011;23739;51.448;6.674;2022-10-24T15:13:47;11.50;;;3.03;;
37905;SDS011;23739;51.448;6.674;2022-10-24T15:16:36;12.15;;;2.67;;
37905;SDS011;23739;51.448;6.674;2022-10-24T15:19:02;10.20;;;2.10;;
37905;SDS011;23739;51.448;6.674;2022-10-24T15:21:31;7.40;;;2.15;;
37905;SDS011;23739;51.448;6.674;2022-10-24T15:23:59;6.05;;;1.95;;
37905;SDS011;23739;51.448;6.674;2022-10-24T15:31:26;19.38;;;5.68;;
37905;SDS011;23739;51.448;6.674;2022-10-24T15:33:53;13.43;;;4.35;;
37905;SDS011;23739;51.448;6.674;2022-10-24T15:36:24;11.77;;;4.45;;
37905;SDS011;23739;51.448;6.674;2022-10-24T15:38:54;13.13;;;5.73;;
37905;SDS011;23739;51.448;6.674;2022-10-24T15:41:21;11.45;;;2.92;;
37905;SDS011;23739;51.448;6.674;2022-10-24T15:43:47;6.28;;;2.35;;
37905;SDS011;23739;51.448;6.674;2022-10-24T15:46:13;9.32;;;2.80;;
37905;SDS011;23739;51.448;6.674;2022-10-24T15:48:39;10.70;;;4.05;;
37905;SDS011;23739;51.448;6.674;2022-10-24T15:51:06;11.40;;;3.53;;
37905;SDS011;23739;51.448;6.674;2022-10-24T15:53:32;6.50;;;3.20;;
37905;SDS011;23739;51.448;6.674;2022-10-24T15:55:58;9.55;;;2.60;;
37905;SDS011;23739;51.448;6.674;2022-10-24T15:58:25;9.85;;;2.92;;
37905;SDS011;23739;51.448;6.674;2022-10-24T16:00:52;9.60;;;2.65;;
37905;SDS011;23739;51.448;6.674;2022-10-24T16:03:20;15.13;;;3.58;;
37905;SDS011;23739;51.448;6.674;2022-10-24T16:05:54;7.72;;;2.55;;
37905;SDS011;23739;51.448;6.674;2022-10-24T16:08:20;11.90;;;2.67;;
37905;SDS011;23739;51.448;6.674;2022-10-24T16:10:49;9.32;;;2.50;;
37905;SDS011;23739;51.448;6.674;2022-10-24T16:13:16;9.23;;;3.63;;
37905;SDS011;23739;51.448;6.674;2022-10-24T16:15:42;10.63;;;2.47;;
37905;SDS011;23739;51.448;6.674;2022-10-24T16:18:09;11.98;;;2.78;;
37905;SDS011;23739;51.448;6.674;2022-10-24T16:20:35;11.98;;;3.47;;
37905;SDS011;23739;51.448;6.674;2022-10-24T16:23:02;7.38;;;2.65;;
37905;SDS011;23739;51.448;6.674;2022-10-24T16:25:29;9.55;;;3.30;;
37905;SDS011;23739;51.448;6.674;2022-10-24T16:27:56;12.95;;;2.90;;
37905;SDS011;23739;51.448;6.674;2022-10-24T16:30:24;8.02;;;2.95;;
37905;SDS011;23739;51.448;6.674;2022-10-24T16:32:50;6.30;;;2.30;;
37905;SDS011;23739;51.448;6.674;2022-10-24T16:35:24;8.65;;;2.30;;
37905;SDS011;23739;51.448;6.674;2022-10-24T16:37:51;8.80;;;2.40;;
37905;SDS011;23739;51.448;6.674;2022-10-24T16:40:18;7.20;;;2.45;;
37905;SDS011;23739;51.448;6.674;2022-10-24T16:42:44;11.90;;;2.58;;
37905;SDS011;23739;51.448;6.674;2022-10-24T16:45:12;10.23;;;2.58;;
37905;SDS011;23739;51.448;6.674;2022-10-24T16:47:39;12.25;;;2.95;;
37905;SDS011;23739;51.448;6.674;2022-10-24T16:50:05;11.57;;;3.25;;
37905;SDS011;23739;51.448;6.674;2022-10-24T16:52:32;12.30;;;3.33;;
37905;SDS011;23739;51.448;6.674;2022-10-24T16:54:58;14.52;;;2.42;;
37905;SDS011;23739;51.448;6.674;2022-10-24T16:57:24;8.27;;;2.70;;
37905;SDS011;23739;51.448;6.674;2022-10-24T16:59:51;13.38;;;4.32;;